This is the latest recevied weather packets stored in our database for station/object WD4IXD. If no packets are shown the sender has not sent any weather packets the latest 1 day(s).
| Time | Temp. | Humidity | Pressure | Rain* | Wind** | Luminosity | Snow |
|---|---|---|---|---|---|---|---|
| 1777982114 | 3.89° C | 93% | 1014.4 hPa | 1.27 mm | 4.47 m/s, 318° | 0 W/m² | - |
| 1777981804 | 3.89° C | 93% | 1014.4 hPa | 1.02 mm | 4.02 m/s, 329° | 0 W/m² | - |
| 1777981515 | 3.89° C | 93% | 1014.4 hPa | 1.02 mm | 4.02 m/s, 315° | 0 W/m² | - |
| 1777981203 | 3.89° C | 93% | 1014.4 hPa | 0.76 mm | 4.47 m/s, 327° | 0 W/m² | - |
| 1777980914 | 4.44° C | 92% | 1014.3 hPa | 0.25 mm | 4.02 m/s, 330° | 0 W/m² | - |
| 1777980604 | 4.44° C | 92% | 1014.3 hPa | 0 mm | 4.02 m/s, 334° | 0 W/m² | - |
| 1777980315 | 5° C | 92% | 1014.3 hPa | 0 mm | 4.92 m/s, 330° | 0 W/m² | - |
| 1777980003 | 5° C | 93% | 1014.2 hPa | 0 mm | 4.47 m/s, 311° | 0 W/m² | - |
| 1777979715 | 5° C | 93% | 1014.2 hPa | 0 mm | 3.13 m/s, 317° | 0 W/m² | - |
| 1777979404 | 5° C | 93% | 1014.1 hPa | 0 mm | 3.13 m/s, 321° | 0 W/m² | - |
| 1777979115 | 5° C | 93% | 1014 hPa | 0 mm | 4.02 m/s, 309° | 0 W/m² | - |
| 1777978804 | 5.56° C | 93% | 1013.9 hPa | 0 mm | 4.47 m/s, 320° | 0 W/m² | - |
| 1777978515 | 5.56° C | 95% | 1013.8 hPa | 0 mm | 4.92 m/s, 316° | 0 W/m² | - |
| 1777978204 | 5.56° C | 93% | 1013.8 hPa | 0 mm | 3.13 m/s, 339° | 0 W/m² | - |
| 1777977915 | 5.56° C | 93% | 1013.8 hPa | 0 mm | 2.68 m/s, 334° | 0 W/m² | - |
| 1777977604 | 5.56° C | 93% | 1013.7 hPa | 0 mm | 4.47 m/s, 344° | 0 W/m² | - |
| 1777977315 | 6.11° C | 93% | 1013.6 hPa | 0 mm | 4.47 m/s, 330° | 0 W/m² | - |
| 1777977004 | 6.11° C | 93% | 1013.6 hPa | 0 mm | 4.02 m/s, 317° | 0 W/m² | - |
| 1777976715 | 6.11° C | 93% | 1013.5 hPa | 0 mm | 3.58 m/s, 332° | 0 W/m² | - |
| 1777976404 | 6.11° C | 92% | 1013.3 hPa | 0 mm | 5.36 m/s, 336° | 0 W/m² | - |
| 1777976115 | 6.11° C | 92% | 1012.9 hPa | 0 mm | 5.81 m/s, 347° | 0 W/m² | - |
| 1777975804 | 6.11° C | 92% | 1012.8 hPa | 0 mm | 4.02 m/s, 343° | 0 W/m² | - |
| 1777975515 | 6.11° C | 92% | 1012.5 hPa | 0 mm | 6.26 m/s, 359° | 0 W/m² | - |
| 1777975215 | 6.67° C | 92% | 1012.9 hPa | 0 mm | 4.02 m/s, 350° | 0 W/m² | - |
| 1777974904 | 6.67° C | 92% | 1012.9 hPa | 0 mm | 4.47 m/s, 350° | 0 W/m² | - |
* Rain latest hour (hover to see other rain measurements)
** Current wind speed in m/s (hover to see current wind gust speed)